sensor_id;sensor_type;location;lat;lon;timestamp;pressure;altitude;pressure_sealevel;temperature;humidity
70407;BME280;57821;52.202;0.154;2023-12-29T00:02:09;100368.25;;;10.41;71.16
70407;BME280;57821;52.202;0.154;2023-12-29T00:04:36;100361.31;;;10.43;70.66
70407;BME280;57821;52.202;0.154;2023-12-29T00:07:03;100364.81;;;10.39;71.17
70407;BME280;57821;52.202;0.154;2023-12-29T00:09:30;100371.69;;;10.43;70.70
70407;BME280;57821;52.202;0.154;2023-12-29T00:12:05;100374.28;;;10.43;70.65
70407;BME280;57821;52.202;0.154;2023-12-29T00:14:32;100363.91;;;10.45;70.24
70407;BME280;57821;52.202;0.154;2023-12-29T00:16:59;100368.25;;;10.41;70.79
70407;BME280;57821;52.202;0.154;2023-12-29T00:19:26;100376.88;;;10.43;70.21
70407;BME280;57821;52.202;0.154;2023-12-29T00:21:53;100380.31;;;10.45;70.32
70407;BME280;57821;52.202;0.154;2023-12-29T00:24:20;100388.06;;;10.48;70.30
70407;BME280;57821;52.202;0.154;2023-12-29T00:26:47;100380.25;;;10.50;70.15
70407;BME280;57821;52.202;0.154;2023-12-29T00:29:14;100375.94;;;10.52;70.13
70407;BME280;57821;52.202;0.154;2023-12-29T00:31:41;100369.03;;;10.49;69.68
70407;BME280;57821;52.202;0.154;2023-12-29T00:34:08;100381.13;;;10.50;70.11
70407;BME280;57821;52.202;0.154;2023-12-29T00:36:35;100380.31;;;10.48;69.17
70407;BME280;57821;52.202;0.154;2023-12-29T00:39:02;100385.50;;;10.45;69.54
70407;BME280;57821;52.202;0.154;2023-12-29T00:41:29;100389.81;;;10.46;69.69
70407;BME280;57821;52.202;0.154;2023-12-29T00:43:56;100385.53;;;10.42;69.37
70407;BME280;57821;52.202;0.154;2023-12-29T00:46:22;100385.53;;;10.42;69.54
70407;BME280;57821;52.202;0.154;2023-12-29T00:48:49;100375.22;;;10.36;69.66
70407;BME280;57821;52.202;0.154;2023-12-29T00:51:16;100384.69;;;10.37;69.26
70407;BME280;57821;52.202;0.154;2023-12-29T00:53:43;100384.69;;;10.37;69.57
70407;BME280;57821;52.202;0.154;2023-12-29T00:56:11;100362.28;;;10.32;69.04
70407;BME280;57821;52.202;0.154;2023-12-29T00:58:38;100372.66;;;10.32;68.89
70407;BME280;57821;52.202;0.154;2023-12-29T01:01:07;100364.03;;;10.29;68.82
70407;BME280;57821;52.202;0.154;2023-12-29T01:03:35;100368.38;;;10.26;68.35
70407;BME280;57821;52.202;0.154;2023-12-29T01:06:02;100385.63;;;10.30;68.67
70407;BME280;57821;52.202;0.154;2023-12-29T01:08:29;100383.97;;;10.24;68.69
70407;BME280;57821;52.202;0.154;2023-12-29T01:10:56;100378.78;;;10.24;69.01
70407;BME280;57821;52.202;0.154;2023-12-29T01:13:23;100401.19;;;10.27;68.05
70407;BME280;57821;52.202;0.154;2023-12-29T01:15:50;100371.91;;;10.19;68.55
70407;BME280;57821;52.202;0.154;2023-12-29T01:18:17;100364.97;;;10.21;68.83
70407;BME280;57821;52.202;0.154;2023-12-29T01:20:44;100363.28;;;10.17;68.97
70407;BME280;57821;52.202;0.154;2023-12-29T01:23:11;100361.56;;;10.19;69.10
70407;BME280;57821;52.202;0.154;2023-12-29T01:25:37;100365.00;;;10.15;69.93
70407;BME280;57821;52.202;0.154;2023-12-29T01:28:04;100343.44;;;10.10;69.85
70407;BME280;57821;52.202;0.154;2023-12-29T01:30:31;100352.91;;;10.14;70.33
70407;BME280;57821;52.202;0.154;2023-12-29T01:32:58;100347.75;;;10.12;70.69
70407;BME280;57821;52.202;0.154;2023-12-29T01:35:25;100341.72;;;10.10;70.47
70407;BME280;57821;52.202;0.154;2023-12-29T01:37:52;100328.81;;;10.03;70.46
70407;BME280;57821;52.202;0.154;2023-12-29T01:40:19;100338.31;;;10.07;71.12
70407;BME280;57821;52.202;0.154;2023-12-29T01:42:46;100340.94;;;10.01;71.04
70407;BME280;57821;52.202;0.154;2023-12-29T01:45:20;100347.81;;;10.03;71.21
70407;BME280;57821;52.202;0.154;2023-12-29T01:47:49;100364.22;;;10.05;71.49
70407;BME280;57821;52.202;0.154;2023-12-29T01:50:19;100360.75;;;10.02;71.33
70407;BME280;57821;52.202;0.154;2023-12-29T01:52:50;100366.81;;;10.04;71.67
70407;BME280;57821;52.202;0.154;2023-12-29T01:55:20;100368.53;;;10.05;72.17
70407;BME280;57821;52.202;0.154;2023-12-29T01:57:49;100364.22;;;10.04;71.63
70407;BME280;57821;52.202;0.154;2023-12-29T02:00:17;100370.25;;;10.03;72.48
70407;BME280;57821;52.202;0.154;2023-12-29T02:02:48;100378.03;;;10.03;71.95
70407;BME280;57821;52.202;0.154;2023-12-29T02:05:16;100371.13;;;10.02;72.32
70407;BME280;57821;52.202;0.154;2023-12-29T02:07:43;100367.72;;;9.98;72.15
70407;BME280;57821;52.202;0.154;2023-12-29T02:10:11;100361.63;;;10.02;72.02
70407;BME280;57821;52.202;0.154;2023-12-29T02:12:42;100368.56;;;9.99;71.90
70407;BME280;57821;52.202;0.154;2023-12-29T02:15:10;100368.56;;;9.99;72.33
70407;BME280;57821;52.202;0.154;2023-12-29T02:17:44;100365.13;;;9.98;72.75
70407;BME280;57821;52.202;0.154;2023-12-29T02:20:12;100376.31;;;10.02;72.54
70407;BME280;57821;52.202;0.154;2023-12-29T02:22:39;100358.19;;;10.02;72.40
70407;BME280;57821;52.202;0.154;2023-12-29T02:25:06;100332.34;;;9.96;72.62
70407;BME280;57821;52.202;0.154;2023-12-29T02:27:46;100350.41;;;10.03;73.07
70407;BME280;57821;52.202;0.154;2023-12-29T02:33:05;100334.81;;;10.08;72.86
70407;BME280;57821;52.202;0.154;2023-12-29T02:35:35;100339.19;;;10.03;73.03
70407;BME280;57821;52.202;0.154;2023-12-29T02:38:04;100358.13;;;10.11;72.87
70407;BME280;57821;52.202;0.154;2023-12-29T02:40:32;100356.38;;;10.13;72.70
70407;BME280;57821;52.202;0.154;2023-12-29T02:42:59;100356.41;;;10.10;72.42
70407;BME280;57821;52.202;0.154;2023-12-29T02:45:25;100373.63;;;10.14;72.42
70407;BME280;57821;52.202;0.154;2023-12-29T02:47:53;100347.75;;;10.17;72.94
70407;BME280;57821;52.202;0.154;2023-12-29T02:50:20;100361.56;;;10.19;72.74
70407;BME280;57821;52.202;0.154;2023-12-29T02:52:47;100355.47;;;10.21;72.96
70407;BME280;57821;52.202;0.154;2023-12-29T02:55:14;100370.16;;;10.24;72.45
70407;BME280;57821;52.202;0.154;2023-12-29T02:57:42;100360.63;;;10.24;72.76
70407;BME280;57821;52.202;0.154;2023-12-29T03:00:10;100357.13;;;10.28;72.28
70407;BME280;57821;52.202;0.154;2023-12-29T03:02:39;100349.38;;;10.27;72.61
70407;BME280;57821;52.202;0.154;2023-12-29T03:05:06;100372.63;;;10.36;72.54
70407;BME280;57821;52.202;0.154;2023-12-29T03:07:34;100371.72;;;10.37;72.10
70407;BME280;57821;52.202;0.154;2023-12-29T03:10:01;100382.97;;;10.39;72.21
70407;BME280;57821;52.202;0.154;2023-12-29T03:12:29;100339.00;;;10.30;71.46
70407;BME280;57821;52.202;0.154;2023-12-29T03:14:57;100363.94;;;10.39;70.61
70407;BME280;57821;52.202;0.154;2023-12-29T03:17:24;100356.19;;;10.37;70.89
70407;BME280;57821;52.202;0.154;2023-12-29T03:19:52;100373.47;;;10.38;70.70
70407;BME280;57821;52.202;0.154;2023-12-29T03:22:20;100375.19;;;10.39;71.46
70407;BME280;57821;52.202;0.154;2023-12-29T03:24:48;100357.91;;;10.38;71.05
70407;BME280;57821;52.202;0.154;2023-12-29T03:27:15;100357.09;;;10.36;71.38
70407;BME280;57821;52.202;0.154;2023-12-29T03:29:42;100351.03;;;10.36;71.29
70407;BME280;57821;52.202;0.154;2023-12-29T03:32:09;100337.28;;;10.29;71.23
70407;BME280;57821;52.202;0.154;2023-12-29T03:34:35;100353.66;;;10.31;71.85
70407;BME280;57821;52.202;0.154;2023-12-29T03:37:03;100323.50;;;10.21;71.20
70407;BME280;57821;52.202;0.154;2023-12-29T03:39:30;100343.38;;;10.23;71.60
70407;BME280;57821;52.202;0.154;2023-12-29T03:41:57;100352.88;;;10.23;71.10
70407;BME280;57821;52.202;0.154;2023-12-29T03:44:23;100361.50;;;10.20;71.66
70407;BME280;57821;52.202;0.154;2023-12-29T03:46:50;100357.25;;;10.12;71.78
70407;BME280;57821;52.202;0.154;2023-12-29T03:49:18;100367.63;;;10.12;71.68
70407;BME280;57821;52.202;0.154;2023-12-29T03:51:46;100368.50;;;10.08;71.57
70407;BME280;57821;52.202;0.154;2023-12-29T03:54:14;100370.25;;;10.06;71.89
70407;BME280;57821;52.202;0.154;2023-12-29T03:56:41;100377.19;;;10.01;71.64
70407;BME280;57821;52.202;0.154;2023-12-29T03:59:08;100361.72;;;9.95;71.90
70407;BME280;57821;52.202;0.154;2023-12-29T04:01:36;100354.81;;;9.95;71.87
70407;BME280;57821;52.202;0.154;2023-12-29T04:04:03;100372.06;;;9.95;71.43
70407;BME280;57821;52.202;0.154;2023-12-29T04:06:30;100377.25;;;9.95;72.00
70407;BME280;57821;52.202;0.154;2023-12-29T04:08:57;100360.00;;;9.90;71.82
70407;BME280;57821;52.202;0.154;2023-12-29T04:11:24;100372.06;;;9.95;72.04
70407;BME280;57821;52.202;0.154;2023-12-29T04:13:51;100345.31;;;9.91;72.28
70407;BME280;57821;52.202;0.154;2023-12-29T04:16:17;100341.91;;;9.89;72.54
70407;BME280;57821;52.202;0.154;2023-12-29T04:18:44;100329.84;;;9.83;72.39
70407;BME280;57821;52.202;0.154;2023-12-29T04:21:15;100339.28;;;9.90;72.36
70407;BME280;57821;52.202;0.154;2023-12-29T04:23:42;100347.94;;;9.86;72.73
70407;BME280;57821;52.202;0.154;2023-12-29T04:26:09;100351.44;;;9.82;73.14
70407;BME280;57821;52.202;0.154;2023-12-29T04:28:36;100352.25;;;9.86;73.60
70407;BME280;57821;52.202;0.154;2023-12-29T04:31:03;100344.50;;;9.84;73.26
70407;BME280;57821;52.202;0.154;2023-12-29T04:33:30;100329.91;;;9.77;73.88
70407;BME280;57821;52.202;0.154;2023-12-29T04:35:57;100337.63;;;9.79;74.18
70407;BME280;57821;52.202;0.154;2023-12-29T04:38:24;100329.09;;;9.69;73.98
70407;BME280;57821;52.202;0.154;2023-12-29T04:40:51;100351.47;;;9.73;74.89
70407;BME280;57821;52.202;0.154;2023-12-29T04:43:18;100333.44;;;9.66;74.57
70407;BME280;57821;52.202;0.154;2023-12-29T04:45:44;100355.84;;;9.68;74.98
70407;BME280;57821;52.202;0.154;2023-12-29T04:48:12;100352.41;;;9.62;75.40
70407;BME280;57821;52.202;0.154;2023-12-29T04:50:39;100337.78;;;9.61;75.86
70407;BME280;57821;52.202;0.154;2023-12-29T04:53:05;100341.25;;;9.58;76.11
70407;BME280;57821;52.202;0.154;2023-12-29T04:55:32;100346.41;;;9.60;77.58
70407;BME280;57821;52.202;0.154;2023-12-29T04:57:59;100355.03;;;9.57;76.84
70407;BME280;57821;52.202;0.154;2023-12-29T05:00:26;100345.56;;;9.56;77.39
70407;BME280;57821;52.202;0.154;2023-12-29T05:02:56;100345.59;;;9.53;76.96
70407;BME280;57821;52.202;0.154;2023-12-29T05:05:23;100343.88;;;9.52;77.25
70407;BME280;57821;52.202;0.154;2023-12-29T05:07:50;100337.00;;;9.48;77.48
70407;BME280;57821;52.202;0.154;2023-12-29T05:10:17;100341.28;;;9.52;77.91
70407;BME280;57821;52.202;0.154;2023-12-29T05:12:43;100330.88;;;9.55;78.34
70407;BME280;57821;52.202;0.154;2023-12-29T05:15:10;100343.81;;;9.57;78.36
70407;BME280;57821;52.202;0.154;2023-12-29T05:17:37;100332.59;;;9.56;78.72
70407;BME280;57821;52.202;0.154;2023-12-29T05:20:07;100326.59;;;9.54;78.77
70407;BME280;57821;52.202;0.154;2023-12-29T05:22:34;100341.25;;;9.55;78.88
70407;BME280;57821;52.202;0.154;2023-12-29T05:25:02;100335.22;;;9.53;78.93
70407;BME280;57821;52.202;0.154;2023-12-29T05:27:28;100326.59;;;9.54;79.22
70407;BME280;57821;52.202;0.154;2023-12-29T05:29:55;100318.84;;;9.54;79.37
70407;BME280;57821;52.202;0.154;2023-12-29T05:32:22;100332.66;;;9.53;79.25
70407;BME280;57821;52.202;0.154;2023-12-29T05:34:49;100332.66;;;9.53;78.98
70407;BME280;57821;52.202;0.154;2023-12-29T05:37:16;100338.72;;;9.47;79.39
70407;BME280;57821;52.202;0.154;2023-12-29T05:39:43;100351.63;;;9.52;79.26
70407;BME280;57821;52.202;0.154;2023-12-29T05:42:10;100347.31;;;9.51;79.01
70407;BME280;57821;52.202;0.154;2023-12-29T05:44:37;100351.66;;;9.49;79.01
70407;BME280;57821;52.202;0.154;2023-12-29T05:47:04;100343.00;;;9.52;78.88
70407;BME280;57821;52.202;0.154;2023-12-29T05:49:31;100359.38;;;9.52;78.92
70407;BME280;57821;52.202;0.154;2023-12-29T05:52:07;100336.97;;;9.49;78.77
70407;BME280;57821;52.202;0.154;2023-12-29T05:54:34;100347.31;;;9.49;78.84
70407;BME280;57821;52.202;0.154;2023-12-29T05:57:02;100348.22;;;9.45;79.00
70407;BME280;57821;52.202;0.154;2023-12-29T05:59:29;100331.00;;;9.38;79.42
70407;BME280;57821;52.202;0.154;2023-12-29T06:01:56;100347.34;;;9.46;79.44
70407;BME280;57821;52.202;0.154;2023-12-29T06:04:23;100345.63;;;9.45;79.53
70407;BME280;57821;52.202;0.154;2023-12-29T06:06:50;100329.25;;;9.42;79.54
70407;BME280;57821;52.202;0.154;2023-12-29T06:09:17;100336.16;;;9.41;79.77
70407;BME280;57821;52.202;0.154;2023-12-29T06:11:44;100337.03;;;9.39;79.97
70407;BME280;57821;52.202;0.154;2023-12-29T06:14:11;100344.81;;;9.37;80.12
70407;BME280;57821;52.202;0.154;2023-12-29T06:16:38;100346.53;;;9.37;80.60
70407;BME280;57821;52.202;0.154;2023-12-29T06:19:05;100340.50;;;9.32;80.69
70407;BME280;57821;52.202;0.154;2023-12-29T06:21:32;100353.44;;;9.36;80.53
70407;BME280;57821;52.202;0.154;2023-12-29T06:23:59;100359.50;;;9.31;80.31
70407;BME280;57821;52.202;0.154;2023-12-29T06:26:26;100347.44;;;9.27;80.25
70407;BME280;57821;52.202;0.154;2023-12-29T06:28:53;100353.50;;;9.26;80.05
70407;BME280;57821;52.202;0.154;2023-12-29T06:31:20;100370.69;;;9.33;80.26
70407;BME280;57821;52.202;0.154;2023-12-29T06:33:47;100362.97;;;9.30;79.60
70407;BME280;57821;52.202;0.154;2023-12-29T06:36:14;100375.03;;;9.29;79.73
70407;BME280;57821;52.202;0.154;2023-12-29T06:38:41;100381.03;;;9.33;79.65
70407;BME280;57821;52.202;0.154;2023-12-29T06:41:08;100379.38;;;9.26;79.45
70407;BME280;57821;52.202;0.154;2023-12-29T06:43:35;100386.22;;;9.33;78.94
70407;BME280;57821;52.202;0.154;2023-12-29T06:46:02;100383.66;;;9.28;79.13
70407;BME280;57821;52.202;0.154;2023-12-29T06:48:29;100369.03;;;9.26;78.94
70407;BME280;57821;52.202;0.154;2023-12-29T06:50:56;100382.78;;;9.28;78.95
70407;BME280;57821;52.202;0.154;2023-12-29T06:53:22;100386.25;;;9.27;79.08
70407;BME280;57821;52.202;0.154;2023-12-29T06:55:50;100381.13;;;9.19;78.86
70407;BME280;57821;52.202;0.154;2023-12-29T06:58:17;100382.84;;;9.19;78.89
70407;BME280;57821;52.202;0.154;2023-12-29T07:00:44;100395.75;;;9.23;78.92
70407;BME280;57821;52.202;0.154;2023-12-29T07:03:15;100391.47;;;9.18;79.42
70407;BME280;57821;52.202;0.154;2023-12-29T07:05:42;100390.56;;;9.20;79.49
70407;BME280;57821;52.202;0.154;2023-12-29T07:08:12;100394.94;;;9.14;79.31
70407;BME280;57821;52.202;0.154;2023-12-29T07:10:40;100395.78;;;9.17;79.08
70407;BME280;57821;52.202;0.154;2023-12-29T07:13:07;100388.91;;;9.13;78.86
70407;BME280;57821;52.202;0.154;2023-12-29T07:15:34;100400.97;;;9.13;78.90
70407;BME280;57821;52.202;0.154;2023-12-29T07:18:01;100403.56;;;9.13;79.26
70407;BME280;57821;52.202;0.154;2023-12-29T07:20:28;100389.75;;;9.11;79.95
70407;BME280;57821;52.202;0.154;2023-12-29T07:22:55;100382.88;;;9.05;79.09
70407;BME280;57821;52.202;0.154;2023-12-29T07:25:22;100387.19;;;9.07;79.06
70407;BME280;57821;52.202;0.154;2023-12-29T07:27:49;100397.53;;;9.07;79.27
70407;BME280;57821;52.202;0.154;2023-12-29T07:30:16;100394.09;;;9.04;79.31
70407;BME280;57821;52.202;0.154;2023-12-29T07:32:43;100394.97;;;9.01;79.17
70407;BME280;57821;52.202;0.154;2023-12-29T07:35:10;100394.97;;;8.98;79.59
70407;BME280;57821;52.202;0.154;2023-12-29T07:37:37;100425.13;;;9.07;79.33
70407;BME280;57821;52.202;0.154;2023-12-29T07:40:04;100416.53;;;9.00;79.59
70407;BME280;57821;52.202;0.154;2023-12-29T07:42:34;100424.25;;;9.06;79.54
70407;BME280;57821;52.202;0.154;2023-12-29T07:45:01;100423.41;;;9.06;79.15
70407;BME280;57821;52.202;0.154;2023-12-29T07:47:28;100400.16;;;8.92;79.55
70407;BME280;57821;52.202;0.154;2023-12-29T07:49:55;100415.69;;;8.95;79.77
70407;BME280;57821;52.202;0.154;2023-12-29T07:52:22;100422.56;;;8.93;79.77
70407;BME280;57821;52.202;0.154;2023-12-29T07:54:49;100428.56;;;9.03;79.78
70407;BME280;57821;52.202;0.154;2023-12-29T07:57:16;100424.28;;;8.97;80.08
70407;BME280;57821;52.202;0.154;2023-12-29T07:59:42;100434.63;;;9.02;80.45
70407;BME280;57821;52.202;0.154;2023-12-29T08:02:09;100431.19;;;9.01;80.98
70407;BME280;57821;52.202;0.154;2023-12-29T08:04:36;100438.06;;;9.01;80.41
70407;BME280;57821;52.202;0.154;2023-12-29T08:07:03;100432.91;;;8.99;81.01
70407;BME280;57821;52.202;0.154;2023-12-29T08:09:31;100421.72;;;8.93;80.97
70407;BME280;57821;52.202;0.154;2023-12-29T08:11:58;100432.91;;;8.98;80.99
70407;BME280;57821;52.202;0.154;2023-12-29T08:14:24;100426.00;;;8.92;80.93
70407;BME280;57821;52.202;0.154;2023-12-29T08:16:51;100443.25;;;8.99;80.85
70407;BME280;57821;52.202;0.154;2023-12-29T08:19:18;100445.84;;;8.99;80.74
70407;BME280;57821;52.202;0.154;2023-12-29T08:21:45;100437.19;;;8.97;80.89
70407;BME280;57821;52.202;0.154;2023-12-29T08:24:11;100444.97;;;8.99;80.60
70407;BME280;57821;52.202;0.154;2023-12-29T08:26:44;100457.91;;;8.99;81.01
70407;BME280;57821;52.202;0.154;2023-12-29T08:29:13;100454.44;;;8.98;80.65
70407;BME280;57821;52.202;0.154;2023-12-29T08:31:41;100450.13;;;8.91;80.52
70407;BME280;57821;52.202;0.154;2023-12-29T08:34:09;100453.59;;;8.96;80.27
70407;BME280;57821;52.202;0.154;2023-12-29T08:36:36;100457.91;;;8.96;81.13
70407;BME280;57821;52.202;0.154;2023-12-29T08:39:03;100458.78;;;8.96;80.58
70407;BME280;57821;52.202;0.154;2023-12-29T08:41:30;100453.59;;;8.93;80.67
70407;BME280;57821;52.202;0.154;2023-12-29T08:43:57;100464.78;;;8.97;80.83
70407;BME280;57821;52.202;0.154;2023-12-29T08:46:24;100469.13;;;8.96;80.58
70407;BME280;57821;52.202;0.154;2023-12-29T08:48:51;100454.47;;;8.89;80.99
70407;BME280;57821;52.202;0.154;2023-12-29T08:51:18;100473.41;;;8.97;80.45
70407;BME280;57821;52.202;0.154;2023-12-29T08:53:45;100463.94;;;8.96;80.99
70407;BME280;57821;52.202;0.154;2023-12-29T08:56:12;100454.47;;;8.92;80.76
70407;BME280;57821;52.202;0.154;2023-12-29T08:58:40;100453.59;;;8.95;80.71
70407;BME280;57821;52.202;0.154;2023-12-29T09:01:08;100467.41;;;8.94;80.57
70407;BME280;57821;52.202;0.154;2023-12-29T09:03:35;100457.03;;;8.92;80.13
70407;BME280;57821;52.202;0.154;2023-12-29T09:06:02;100484.63;;;9.02;80.35
70407;BME280;57821;52.202;0.154;2023-12-29T09:08:30;100491.53;;;9.02;80.05
70407;BME280;57821;52.202;0.154;2023-12-29T09:10:57;100501.00;;;9.06;79.69
70407;BME280;57821;52.202;0.154;2023-12-29T09:13:24;100491.53;;;9.00;79.63
70407;BME280;57821;52.202;0.154;2023-12-29T09:15:56;100505.28;;;9.08;79.89
70407;BME280;57821;52.202;0.154;2023-12-29T09:18:23;100495.81;;;9.06;79.65
70407;BME280;57821;52.202;0.154;2023-12-29T09:20:50;100511.31;;;9.15;79.98
70407;BME280;57821;52.202;0.154;2023-12-29T09:23:17;100508.72;;;9.17;79.70
70407;BME280;57821;52.202;0.154;2023-12-29T09:25:43;100512.19;;;9.19;79.20
70407;BME280;57821;52.202;0.154;2023-12-29T09:28:10;100506.13;;;9.17;79.19
70407;BME280;57821;52.202;0.154;2023-12-29T09:30:37;100505.28;;;9.24;78.90
70407;BME280;57821;52.202;0.154;2023-12-29T09:33:04;100512.19;;;9.19;78.70
70407;BME280;57821;52.202;0.154;2023-12-29T09:35:31;100515.59;;;9.27;78.51
70407;BME280;57821;52.202;0.154;2023-12-29T09:38:01;100513.84;;;9.32;78.64
70407;BME280;57821;52.202;0.154;2023-12-29T09:40:28;100519.91;;;9.29;78.50
70407;BME280;57821;52.202;0.154;2023-12-29T09:42:55;100516.44;;;9.33;78.12
70407;BME280;57821;52.202;0.154;2023-12-29T09:45:23;100510.44;;;9.30;77.98
70407;BME280;57821;52.202;0.154;2023-12-29T09:48:13;100518.19;;;9.34;77.70
70407;BME280;57821;52.202;0.154;2023-12-29T09:50:43;100520.78;;;9.36;77.72
70407;BME280;57821;52.202;0.154;2023-12-29T09:53:11;100525.06;;;9.34;77.33
70407;BME280;57821;52.202;0.154;2023-12-29T09:55:40;100529.38;;;9.38;77.54
70407;BME280;57821;52.202;0.154;2023-12-29T09:58:08;100512.16;;;9.31;77.02
70407;BME280;57821;52.202;0.154;2023-12-29T10:00:56;100535.41;;;9.43;76.88
70407;BME280;57821;52.202;0.154;2023-12-29T10:04:19;100537.97;;;9.46;76.89
70407;BME280;57821;52.202;0.154;2023-12-29T10:07:38;100531.09;;;9.45;75.96
70407;BME280;57821;52.202;0.154;2023-12-29T10:10:43;100531.94;;;9.48;75.69
70407;BME280;57821;52.202;0.154;2023-12-29T10:13:31;100539.69;;;9.50;75.59
70407;BME280;57821;52.202;0.154;2023-12-29T10:16:20;100540.53;;;9.57;76.03
70407;BME280;57821;52.202;0.154;2023-12-29T10:19:01;100543.13;;;9.58;75.94
70407;BME280;57821;52.202;0.154;2023-12-29T10:24:21;100550.00;;;9.71;75.83
70407;BME280;57821;52.202;0.154;2023-12-29T10:26:49;100548.25;;;9.76;75.83
70407;BME280;57821;52.202;0.154;2023-12-29T10:29:17;100555.13;;;9.80;75.50
70407;BME280;57821;52.202;0.154;2023-12-29T10:31:45;100572.38;;;9.86;74.88
70407;BME280;57821;52.202;0.154;2023-12-29T10:34:23;100561.13;;;9.90;75.11
70407;BME280;57821;52.202;0.154;2023-12-29T10:36:59;100557.69;;;9.93;75.37
70407;BME280;57821;52.202;0.154;2023-12-29T10:39:28;100544.75;;;9.89;74.69
70407;BME280;57821;52.202;0.154;2023-12-29T10:42:06;100564.59;;;9.95;74.85
70407;BME280;57821;52.202;0.154;2023-12-29T10:44:35;100559.38;;;9.97;75.26
70407;BME280;57821;52.202;0.154;2023-12-29T10:47:09;100540.38;;;9.96;74.82
70407;BME280;57821;52.202;0.154;2023-12-29T10:49:37;100545.53;;;10.04;75.04
70407;BME280;57821;52.202;0.154;2023-12-29T10:52:14;100545.53;;;10.07;74.95
70407;BME280;57821;52.202;0.154;2023-12-29T10:54:42;100544.63;;;10.11;75.08
70407;BME280;57821;52.202;0.154;2023-12-29T10:57:11;100545.50;;;10.13;75.77
70407;BME280;57821;52.202;0.154;2023-12-29T10:59:39;100545.50;;;10.13;75.06
70407;BME280;57821;52.202;0.154;2023-12-29T11:02:06;100541.16;;;10.21;75.77
70407;BME280;57821;52.202;0.154;2023-12-29T11:04:35;100534.25;;;10.20;75.55
70407;BME280;57821;52.202;0.154;2023-12-29T11:07:02;100553.22;;;10.29;75.89
70407;BME280;57821;52.202;0.154;2023-12-29T11:09:31;100549.72;;;10.34;76.10
70407;BME280;57821;52.202;0.154;2023-12-29T11:12:07;100539.41;;;10.31;75.63
70407;BME280;57821;52.202;0.154;2023-12-29T11:14:34;100544.53;;;10.32;75.88
70407;BME280;57821;52.202;0.154;2023-12-29T11:17:01;100541.06;;;10.39;75.95
70407;BME280;57821;52.202;0.154;2023-12-29T11:19:28;100545.34;;;10.43;76.16
70407;BME280;57821;52.202;0.154;2023-12-29T11:21:55;100547.06;;;10.46;76.03
70407;BME280;57821;52.202;0.154;2023-12-29T11:24:23;100545.34;;;10.45;76.26
70407;BME280;57821;52.202;0.154;2023-12-29T11:27:04;100528.06;;;10.47;76.00
70407;BME280;57821;52.202;0.154;2023-12-29T11:29:34;100528.91;;;10.47;76.39
70407;BME280;57821;52.202;0.154;2023-12-29T11:32:03;100542.75;;;10.43;76.24
70407;BME280;57821;52.202;0.154;2023-12-29T11:34:40;100557.41;;;10.50;76.19
70407;BME280;57821;52.202;0.154;2023-12-29T11:37:26;100564.31;;;10.53;75.80
70407;BME280;57821;52.202;0.154;2023-12-29T11:40:14;100544.44;;;10.53;76.01
70407;BME280;57821;52.202;0.154;2023-12-29T11:42:48;100510.78;;;10.47;75.80
70407;BME280;57821;52.202;0.154;2023-12-29T11:45:25;100529.69;;;10.57;76.09
70407;BME280;57821;52.202;0.154;2023-12-29T11:47:54;100503.81;;;10.52;75.93
70407;BME280;57821;52.202;0.154;2023-12-29T11:50:33;100513.28;;;10.59;76.07
70407;BME280;57821;52.202;0.154;2023-12-29T11:53:01;100524.47;;;10.61;76.02
70407;BME280;57821;52.202;0.154;2023-12-29T11:55:39;100535.72;;;10.63;75.98
70407;BME280;57821;52.202;0.154;2023-12-29T11:58:27;100527.91;;;10.65;75.50
70407;BME280;57821;52.202;0.154;2023-12-29T12:00:56;100533.06;;;10.68;75.46
70407;BME280;57821;52.202;0.154;2023-12-29T12:03:25;100529.63;;;10.69;75.50
70407;BME280;57821;52.202;0.154;2023-12-29T12:05:54;100528.75;;;10.68;76.47
70407;BME280;57821;52.202;0.154;2023-12-29T12:08:33;100533.94;;;10.72;76.11
70407;BME280;57821;52.202;0.154;2023-12-29T12:13:58;100542.59;;;10.67;76.14
70407;BME280;57821;52.202;0.154;2023-12-29T12:19:12;100543.47;;;10.63;76.95
70407;BME280;57821;52.202;0.154;2023-12-29T12:21:40;100550.44;;;10.60;77.42
70407;BME280;57821;52.202;0.154;2023-12-29T12:24:07;100534.97;;;10.48;77.52
70407;BME280;57821;52.202;0.154;2023-12-29T12:26:34;100536.69;;;10.44;77.28
70407;BME280;57821;52.202;0.154;2023-12-29T12:29:02;100541.06;;;10.39;77.26
70407;BME280;57821;52.202;0.154;2023-12-29T12:31:30;100531.66;;;10.24;78.08
70407;BME280;57821;52.202;0.154;2023-12-29T12:33:57;100545.47;;;10.20;77.87
70407;BME280;57821;52.202;0.154;2023-12-29T12:36:24;100519.66;;;9.99;77.85
70407;BME280;57821;52.202;0.154;2023-12-29T12:38:54;100536.06;;;9.97;78.09
70407;BME280;57821;52.202;0.154;2023-12-29T12:41:25;100549.03;;;9.92;78.05
70407;BME280;57821;52.202;0.154;2023-12-29T12:44:14;100548.19;;;9.85;78.60
70407;BME280;57821;52.202;0.154;2023-12-29T12:49:15;100543.97;;;9.63;79.10
70407;BME280;57821;52.202;0.154;2023-12-29T12:51:42;100534.56;;;9.41;79.37
70407;BME280;57821;52.202;0.154;2023-12-29T12:54:10;100534.56;;;9.32;79.39
70407;BME280;57821;52.202;0.154;2023-12-29T12:56:37;100534.59;;;9.11;79.75
70407;BME280;57821;52.202;0.154;2023-12-29T12:59:04;100528.59;;;9.01;79.46
70407;BME280;57821;52.202;0.154;2023-12-29T13:01:36;100532.88;;;8.97;79.55
70407;BME280;57821;52.202;0.154;2023-12-29T13:04:05;100532.03;;;8.86;79.61
70407;BME280;57821;52.202;0.154;2023-12-29T13:06:33;100527.72;;;8.75;78.70
70407;BME280;57821;52.202;0.154;2023-12-29T13:09:00;100510.50;;;8.64;79.53
70407;BME280;57821;52.202;0.154;2023-12-29T13:11:31;100478.63;;;8.47;79.81
70407;BME280;57821;52.202;0.154;2023-12-29T13:13:58;100485.53;;;8.44;81.03
70407;BME280;57821;52.202;0.154;2023-12-29T13:16:37;100484.66;;;8.48;82.03
70407;BME280;57821;52.202;0.154;2023-12-29T13:19:19;100473.44;;;8.40;82.57